Terminal Aerodrome Forecast
Issued by NWS

Home | Current Version | Previous Version | Text Only | Print | Product List | Glossary On
Versions: 1 2 3 4 5 6 7 8 9 10 11 12 13 14 15 16 17
000
FTUS45 KTFX 260614 RRA
TAFLWT
TAF
KLWT 260614Z 2606/2706 12008KT P6SM FEW050 SCT080
     FM261800 VRB06KT P6SM SCT050 BKN080
     FM270100 30009KT P6SM -TSRA SCT040CB BKN100=

USA.gov is the U.S. government's official web portal to all federal, state and local government web resources and services.